MMAA/ACA METAR and TAF weather

Enter ICAO airport designator
Station Type Date Time Source
MMAA METAR 2020/04/09 10:46 UTC NOAA

MMAA 091046Z 34002KT 6SM SKC 23/20 A2985 RMK HZY CU


Station Type Date Time Source
MMAA Decoded METAR 2020/04/09 10:46 UTC NOAA

Acapulco / G. Alvarez, Mexico (MMAA) 16-46N 099-45W
Apr 09, 2020 - 06:46 AM EDT / 2020.04.09 1046 UTC
Wind: from the NNW (340 degrees) at 2 MPH (2 KT):0
Visibility: 6 mile(s):0
Sky conditions: clear
Temperature: 73 F (23 C)
Dew Point: 68 F (20 C)
Relative Humidity: 83%
Pressure (altimeter): 29.85 in. Hg (1010 hPa)
ob: MMAA 091046Z 34002KT 6SM SKC 23/20 A2985 RMK HZY CU
cycle: 11

Station Type Date Time Source
MMAA TAF 2020/04/09 12:38 UTC NOAA

TAF MMAA 091031Z 0912/1018 02005KT 6SM HZ SCT300 TX30/0920Z TN22/0920Z
FM091600 23008KT 6SM HZ SCT300
FM100300 02005KT 5SM HZ SCT300
FM101600 23010KT P6SM SCT300

Example: see airport list